createdAt,value
2023-02-18T00:02:10.205Z,0.30
2023-02-18T00:07:09.728Z,0.10
2023-02-18T00:12:09.065Z,0.20
2023-02-18T00:17:10.012Z,0.10
2023-02-18T00:22:09.255Z,0.10
2023-02-18T00:27:08.795Z,0.30
2023-02-18T00:32:07.629Z,0.10
2023-02-18T00:37:08.541Z,0.20
2023-02-18T00:42:08.336Z,0.20
2023-02-18T00:47:09.784Z,0.10
2023-02-18T00:52:10.348Z,0.10
2023-02-18T00:57:09.458Z,0.30
2023-02-18T01:02:08.990Z,0.10
2023-02-18T01:07:10.371Z,0.60
2023-02-18T01:12:10.219Z,0.10
2023-02-18T01:17:09.773Z,0.40
2023-02-18T01:22:08.372Z,0.30
2023-02-18T01:27:08.464Z,0.20
2023-02-18T01:32:07.859Z,0.30
2023-02-18T01:37:07.128Z,0.20
2023-02-18T01:42:17.685Z,0.20
2023-02-18T01:47:18.537Z,0.40
2023-02-18T01:52:22.417Z,0.30
2023-02-18T01:57:30.478Z,0.10
2023-02-18T02:02:33.192Z,0.20
2023-02-18T02:07:35.799Z,0.20
2023-02-18T02:12:52.268Z,0.90
2023-02-18T02:18:13.619Z,0.20
2023-02-18T02:24:00.819Z,0.10
2023-02-18T02:29:38.873Z,0.10
2023-02-18T02:34:54.171Z,0.20
2023-02-18T02:40:08.384Z,0.30
2023-02-18T02:45:19.405Z,0.20
2023-02-18T02:50:28.470Z,0.30
2023-02-18T02:55:28.010Z,0.20
2023-02-18T03:00:44.816Z,0.40
2023-02-18T03:06:27.243Z,0.20
2023-02-18T03:11:28.050Z,0.20
2023-02-18T03:16:39.448Z,0.20
2023-02-18T03:21:46.861Z,0.20
2023-02-18T03:26:54.073Z,0.40
2023-02-18T03:32:00.448Z,0.30
2023-02-18T03:37:02.873Z,0.50
2023-02-18T03:42:04.846Z,0.10
2023-02-18T03:47:05.100Z,0.10
2023-02-18T03:52:04.535Z,0.50
2023-02-18T03:57:03.852Z,0.20
2023-02-18T04:02:02.868Z,0.50
2023-02-18T04:07:01.605Z,0.00
2023-02-18T04:12:00.984Z,0.40
2023-02-18T04:17:00.308Z,0.50
2023-02-18T04:21:58.889Z,0.10
2023-02-18T04:27:00.163Z,0.20
2023-02-18T04:32:00.859Z,0.30
2023-02-18T04:37:00.267Z,0.30
2023-02-18T04:42:09.005Z,0.40
2023-02-18T04:47:09.707Z,0.30
2023-02-18T04:52:11.638Z,0.20
2023-02-18T04:57:10.868Z,0.30
2023-02-18T05:02:10.264Z,0.30
2023-02-18T05:07:10.562Z,0.30
2023-02-18T05:12:12.482Z,0.20
2023-02-18T05:17:11.420Z,0.10
2023-02-18T05:22:10.974Z,0.30
2023-02-18T05:27:11.415Z,0.30
2023-02-18T05:32:11.464Z,0.10
2023-02-18T05:37:13.954Z,0.20
2023-02-18T05:42:14.222Z,0.40
2023-02-18T05:47:15.769Z,0.20
2023-02-18T05:52:17.016Z,0.10
2023-02-18T05:57:18.854Z,0.10
2023-02-18T06:02:18.835Z,0.30
2023-02-18T06:07:20.770Z,0.20
2023-02-18T06:12:20.285Z,0.40
2023-02-18T06:17:21.087Z,0.20
2023-02-18T06:22:20.255Z,0.10
2023-02-18T06:27:19.608Z,0.10
2023-02-18T06:32:18.967Z,0.30
2023-02-18T06:37:18.084Z,0.30
2023-02-18T06:42:16.931Z,0.20
2023-02-18T06:47:15.598Z,0.40
2023-02-18T06:52:14.908Z,0.30
2023-02-18T06:57:14.536Z,0.50
2023-02-18T07:02:16.348Z,0.30
2023-02-18T07:07:15.682Z,0.30
2023-02-18T07:12:14.959Z,0.60
2023-02-18T07:17:15.134Z,0.30
2023-02-18T07:22:14.544Z,0.70
2023-02-18T07:27:14.478Z,0.30
2023-02-18T07:32:15.606Z,0.10
2023-02-18T07:37:15.336Z,0.10
2023-02-18T07:42:15.372Z,0.10
2023-02-18T07:47:19.880Z,0.30
2023-02-18T07:52:19.719Z,0.10
2023-02-18T07:57:19.496Z,0.30
2023-02-18T08:02:23.003Z,0.40
2023-02-18T08:07:24.629Z,0.10
2023-02-18T08:12:23.245Z,0.10
2023-02-18T08:17:22.157Z,0.20
2023-02-18T08:22:21.400Z,0.30
2023-02-18T08:27:20.813Z,0.40
2023-02-18T08:32:19.803Z,0.30
2023-02-18T08:37:18.528Z,0.10
2023-02-18T08:42:17.834Z,0.30
2023-02-18T08:48:16.116Z,0.40
2023-02-18T08:52:36.612Z,0.40
2023-02-18T08:57:35.881Z,0.40
2023-02-18T09:02:34.591Z,0.50
2023-02-18T09:07:33.595Z,0.20
2023-02-18T09:12:33.290Z,0.60
2023-02-18T09:17:35.752Z,0.30
2023-02-18T09:22:34.849Z,0.30
2023-02-18T09:27:33.514Z,0.60
2023-02-18T09:32:35.061Z,0.60
2023-02-18T09:37:35.589Z,0.30
2023-02-18T09:42:38.527Z,0.20
2023-02-18T09:47:43.810Z,0.30
2023-02-18T09:52:43.745Z,0.20
2023-02-18T09:57:48.810Z,0.40
2023-02-18T10:02:59.426Z,0.50
2023-02-18T10:08:05.851Z,0.20
2023-02-18T10:13:06.220Z,0.30
2023-02-18T10:18:15.847Z,0.30
2023-02-18T10:23:17.604Z,0.60
2023-02-18T10:28:18.398Z,0.30
2023-02-18T10:33:35.040Z,1.10
2023-02-18T10:38:48.562Z,0.30
2023-02-18T10:43:59.620Z,0.20
2023-02-18T10:49:14.337Z,0.30
2023-02-18T10:54:15.988Z,0.50
2023-02-18T10:59:34.632Z,0.50
2023-02-18T11:04:41.459Z,0.40
2023-02-18T11:09:48.970Z,0.70
2023-02-18T11:14:52.710Z,0.60
2023-02-18T11:19:59.912Z,0.20
2023-02-18T11:25:05.477Z,0.30
2023-02-18T11:30:18.841Z,0.20
2023-02-18T11:35:28.620Z,0.30
2023-02-18T11:40:34.044Z,0.30
2023-02-18T11:45:36.418Z,0.40
2023-02-18T11:50:38.454Z,0.30
2023-02-18T11:55:38.380Z,0.90
2023-02-18T12:00:45.845Z,0.40
2023-02-18T12:05:47.093Z,0.30
2023-02-18T12:10:51.796Z,0.30
2023-02-18T12:16:11.667Z,0.60
2023-02-18T12:21:29.216Z,0.30
2023-02-18T12:26:37.316Z,0.60
2023-02-18T12:32:14.766Z,0.30
2023-02-18T12:37:35.710Z,0.50
2023-02-18T12:42:55.568Z,0.50
2023-02-18T12:48:34.313Z,1.00
2023-02-18T12:54:11.954Z,0.30
2023-02-18T12:59:33.096Z,0.50
2023-02-18T13:04:50.658Z,0.40
2023-02-18T13:10:12.413Z,0.60
2023-02-18T13:15:22.484Z,0.70
2023-02-18T13:20:34.788Z,0.80
2023-02-18T13:25:41.040Z,0.40
2023-02-18T13:30:50.659Z,0.70
2023-02-18T13:36:05.095Z,0.60
2023-02-18T13:41:05.529Z,0.60
2023-02-18T13:46:15.609Z,0.40
2023-02-18T13:51:18.672Z,0.30
2023-02-18T13:56:29.944Z,0.50
2023-02-18T14:01:45.544Z,0.50
2023-02-18T14:07:48.443Z,1.00
2023-02-18T14:13:24.512Z,0.70
2023-02-18T14:19:04.967Z,0.40
2023-02-18T14:24:49.811Z,0.60
2023-02-18T14:29:51.628Z,0.30
2023-02-18T14:35:22.483Z,0.20
2023-02-18T14:40:37.914Z,0.20
2023-02-18T14:46:06.180Z,0.50
2023-02-18T14:51:05.408Z,0.40
2023-02-18T14:56:10.717Z,0.50
2023-02-18T15:01:21.976Z,0.50
2023-02-18T15:06:36.034Z,0.50
2023-02-18T15:11:45.450Z,0.40
2023-02-18T15:16:45.638Z,0.30
2023-02-18T15:21:49.724Z,0.40
2023-02-18T15:26:52.803Z,0.50
2023-02-18T15:31:53.703Z,0.40
2023-02-18T15:36:56.332Z,0.30
2023-02-18T15:42:02.974Z,0.20
2023-02-18T15:47:08.850Z,0.10
2023-02-18T15:52:10.925Z,0.10
2023-02-18T15:57:15.632Z,0.30
2023-02-18T16:02:23.490Z,0.10
2023-02-18T16:07:29.916Z,0.60
2023-02-18T16:12:34.803Z,0.10
2023-02-18T16:17:34.914Z,0.50
2023-02-18T16:22:45.257Z,0.20
2023-02-18T16:28:11.452Z,0.50
2023-02-18T16:33:11.438Z,0.30
2023-02-18T16:38:12.494Z,0.50
2023-02-18T16:43:18.456Z,0.50
2023-02-18T16:48:27.277Z,0.30
2023-02-18T16:53:29.950Z,0.50
2023-02-18T16:58:29.925Z,0.70
2023-02-18T17:03:29.870Z,0.60
2023-02-18T17:08:30.100Z,1.20
2023-02-18T17:13:32.802Z,0.30
2023-02-18T17:18:31.523Z,0.50
2023-02-18T17:23:30.442Z,0.30
2023-02-18T17:28:30.212Z,1.70
2023-02-18T17:33:29.893Z,0.90
2023-02-18T17:38:29.637Z,1.10
2023-02-18T17:43:28.952Z,0.80
2023-02-18T17:48:28.968Z,0.40
2023-02-18T17:53:28.896Z,0.40
2023-02-18T17:58:28.685Z,1.10
2023-02-18T18:03:28.544Z,0.40
2023-02-18T18:08:28.756Z,0.80
2023-02-18T18:13:32.477Z,0.50
2023-02-18T18:18:32.241Z,0.70
2023-02-18T18:23:33.079Z,0.60
2023-02-18T18:28:33.420Z,0.30
2023-02-18T18:33:35.921Z,0.80
2023-02-18T18:38:36.120Z,1.00
2023-02-18T18:43:39.136Z,0.40
2023-02-18T18:48:42.060Z,0.40
2023-02-18T18:53:41.907Z,0.80
2023-02-18T18:58:41.425Z,0.40
2023-02-18T19:03:42.534Z,1.20
2023-02-18T19:08:41.691Z,1.50
2023-02-18T19:13:41.106Z,1.20
2023-02-18T19:18:40.176Z,1.00
2023-02-18T19:23:39.875Z,1.40
2023-02-18T19:28:39.214Z,1.20
2023-02-18T19:33:39.436Z,1.10
2023-02-18T19:38:38.368Z,1.00
2023-02-18T19:43:37.785Z,1.00
2023-02-18T19:48:36.965Z,1.50
2023-02-18T19:53:36.358Z,1.60
2023-02-18T19:58:35.646Z,1.20
2023-02-18T20:03:35.193Z,2.60
2023-02-18T20:08:37.154Z,1.60
2023-02-18T20:13:36.495Z,1.80
2023-02-18T20:18:35.364Z,1.60
2023-02-18T20:23:34.254Z,1.80
2023-02-18T20:28:33.206Z,1.00
2023-02-18T20:33:33.065Z,1.40
2023-02-18T20:38:32.551Z,2.20
2023-02-18T20:43:33.115Z,3.20
2023-02-18T20:48:33.598Z,1.50
2023-02-18T20:53:37.388Z,2.70
2023-02-18T20:58:38.804Z,1.80
2023-02-18T21:03:38.895Z,3.30
2023-02-18T21:08:40.452Z,2.20
2023-02-18T21:13:40.539Z,2.20
2023-02-18T21:18:39.980Z,1.70
2023-02-18T21:23:40.532Z,2.30
2023-02-18T21:28:40.697Z,1.80
2023-02-18T21:33:39.964Z,1.10
2023-02-18T21:38:39.335Z,1.00
2023-02-18T21:43:41.260Z,1.30
2023-02-18T21:48:58.086Z,1.20
2023-02-18T21:53:57.428Z,1.40
2023-02-18T21:58:58.780Z,1.60
2023-02-18T22:03:59.070Z,1.20
2023-02-18T22:08:57.856Z,1.70
2023-02-18T22:13:56.818Z,1.10
2023-02-18T22:18:55.816Z,0.80
2023-02-18T22:23:55.271Z,0.70
2023-02-18T22:29:00.544Z,1.30
2023-02-18T22:34:03.139Z,1.20
2023-02-18T22:39:04.713Z,1.60
2023-02-18T22:44:07.631Z,1.00
2023-02-18T22:49:08.214Z,0.80
2023-02-18T22:54:08.558Z,1.70
2023-02-18T22:59:07.632Z,0.40
2023-02-18T23:04:13.373Z,0.60
2023-02-18T23:09:17.774Z,1.30
2023-02-18T23:14:20.145Z,1.40
2023-02-18T23:19:19.981Z,1.70
2023-02-18T23:24:19.859Z,0.90
2023-02-18T23:29:21.362Z,0.70
2023-02-18T23:34:24.856Z,1.40
2023-02-18T23:39:27.038Z,0.50
2023-02-18T23:44:28.774Z,1.80
2023-02-18T23:49:30.232Z,1.50
2023-02-18T23:54:30.436Z,1.20
2023-02-18T23:59:29.593Z,1.30
